createdAt,value
2019-02-11T00:00:40.695Z,99591.94
2019-02-11T00:03:09.240Z,99605.33
2019-02-11T00:05:37.550Z,99612.87
2019-02-11T00:08:05.831Z,99622.39
2019-02-11T00:10:34.128Z,99630.27
2019-02-11T00:13:10.186Z,99639.55
2019-02-11T00:15:32.409Z,99643.62
2019-02-11T00:18:00.720Z,99650.05
2019-02-11T00:20:28.999Z,99652.70
2019-02-11T00:22:57.639Z,99663.50
2019-02-11T00:25:25.937Z,99661.17
2019-02-11T00:27:54.227Z,99674.88
2019-02-11T00:30:22.520Z,99687.91
2019-02-11T00:32:50.858Z,99692.31
2019-02-11T00:35:19.180Z,99700.89
2019-02-11T00:37:47.712Z,99702.26
2019-02-11T00:40:16.040Z,99706.50
2019-02-11T00:42:44.354Z,99714.70
2019-02-11T00:45:12.641Z,99728.07
2019-02-11T00:47:40.951Z,99731.86
2019-02-11T00:50:11.220Z,99730.89
2019-02-11T00:52:39.533Z,99735.47
2019-02-11T00:55:07.886Z,99741.33
2019-02-11T00:57:36.178Z,99747.21
2019-02-11T01:00:06.980Z,99763.99
2019-02-11T01:02:35.269Z,99767.20
2019-02-11T01:05:03.954Z,99770.75
2019-02-11T01:07:32.232Z,99774.22
2019-02-11T01:10:00.543Z,99782.23
2019-02-11T01:12:28.832Z,99784.08
2019-02-11T01:14:57.156Z,99791.63
2019-02-11T01:17:25.435Z,99790.60
2019-02-11T01:19:53.738Z,99802.22
2019-02-11T01:22:22.037Z,99809.36
2019-02-11T01:24:50.339Z,99809.63
2019-02-11T01:27:18.632Z,99813.09
2019-02-11T01:29:46.926Z,99823.80
2019-02-11T01:32:15.521Z,99831.42
2019-02-11T01:34:43.838Z,99836.09
2019-02-11T01:37:12.482Z,99842.41
2019-02-11T01:39:40.766Z,99844.11
2019-02-11T01:42:09.108Z,99856.23
2019-02-11T01:44:37.389Z,99858.69
2019-02-11T01:47:05.703Z,99859.93
2019-02-11T01:49:34.896Z,99865.91
2019-02-11T01:52:03.213Z,99863.20
2019-02-11T01:54:31.526Z,99863.57
2019-02-11T01:56:59.828Z,99866.67
2019-02-11T01:59:28.134Z,99869.06
2019-02-11T02:01:56.436Z,99878.75
2019-02-11T02:04:24.741Z,99887.63
2019-02-11T02:06:53.020Z,99886.05
2019-02-11T02:09:21.330Z,99893.78
2019-02-11T02:11:49.633Z,99897.64
2019-02-11T02:14:17.942Z,99907.88
2019-02-11T02:16:46.536Z,99906.99
2019-02-11T02:19:15.128Z,99912.06
2019-02-11T02:21:43.426Z,99918.20
2019-02-11T02:24:11.714Z,99930.69
2019-02-11T02:26:40.028Z,99929.47
2019-02-11T02:29:08.306Z,99933.72
2019-02-11T02:31:36.619Z,99941.83
2019-02-11T02:34:04.928Z,99945.20
2019-02-11T02:36:33.261Z,99951.58
2019-02-11T02:39:01.554Z,99951.95
2019-02-11T02:41:29.867Z,99952.89
2019-02-11T02:43:58.399Z,99953.92
2019-02-11T02:46:26.969Z,99958.27
2019-02-11T02:48:55.562Z,99957.78
2019-02-11T02:51:23.867Z,99956.91
2019-02-11T02:53:52.532Z,99963.07
2019-02-11T02:56:20.840Z,99961.16
2019-02-11T02:58:49.131Z,99968.72
2019-02-11T03:01:17.417Z,99967.81
2019-02-11T03:03:45.730Z,99977.25
2019-02-11T03:06:14.039Z,99976.28
2019-02-11T03:08:42.698Z,99983.63
2019-02-11T03:11:10.989Z,99992.44
2019-02-11T03:13:39.335Z,99998.97
2019-02-11T03:16:07.643Z,100006.71
2019-02-11T03:18:35.945Z,100011.94
2019-02-11T03:21:04.247Z,100011.94
2019-02-11T03:23:32.538Z,100020.34
2019-02-11T03:26:01.134Z,100023.00
2019-02-11T03:28:29.739Z,100029.19
2019-02-11T03:30:58.062Z,100024.16
2019-02-11T03:33:26.352Z,100025.08
2019-02-11T03:35:54.679Z,100036.83
2019-02-11T03:38:22.981Z,100034.83
2019-02-11T03:40:51.300Z,100041.69
2019-02-11T03:43:19.605Z,100037.22
2019-02-11T03:45:47.900Z,100052.28
2019-02-11T03:48:16.219Z,100059.97
2019-02-11T03:50:44.505Z,100062.12
2019-02-11T03:53:12.828Z,100068.52
2019-02-11T03:55:41.144Z,100068.44
2019-02-11T03:58:09.461Z,100075.64
2019-02-11T04:00:38.443Z,100085.64
2019-02-11T04:03:06.757Z,100081.35
2019-02-11T04:05:35.399Z,100094.82
2019-02-11T04:08:04.082Z,100100.27
2019-02-11T04:10:32.394Z,100115.19
2019-02-11T04:13:00.718Z,100110.45
2019-02-11T04:15:29.068Z,100112.69
2019-02-11T04:17:57.388Z,100124.67
2019-02-11T04:20:25.988Z,100131.20
2019-02-11T04:22:54.294Z,100139.18
2019-02-11T04:25:22.605Z,100147.09
2019-02-11T04:27:50.902Z,100144.59
2019-02-11T04:30:19.197Z,100160.16
2019-02-11T04:32:47.507Z,100155.61
2019-02-11T04:35:15.829Z,100161.12
2019-02-11T04:37:44.129Z,100163.11
2019-02-11T04:40:13.324Z,100173.30
2019-02-11T04:42:41.898Z,100182.36
2019-02-11T04:45:11.066Z,100182.36
2019-02-11T04:47:39.327Z,100193.48
2019-02-11T04:50:09.370Z,100201.12
2019-02-11T04:52:37.657Z,100202.03
2019-02-11T04:55:08.313Z,100204.56
2019-02-11T04:57:36.882Z,100210.13
2019-02-11T05:00:10.879Z,100205.95
2019-02-11T05:02:39.479Z,100217.92
2019-02-11T05:05:09.584Z,100223.75
2019-02-11T05:07:37.871Z,100228.16
2019-02-11T05:10:11.919Z,100233.72
2019-02-11T05:12:40.218Z,100239.09
2019-02-11T05:15:10.481Z,100243.83
2019-02-11T05:17:38.780Z,100249.45
2019-02-11T05:20:11.288Z,100244.34
2019-02-11T05:22:39.742Z,100256.47
2019-02-11T05:25:08.705Z,100246.38
2019-02-11T05:27:36.977Z,100256.18
2019-02-11T05:30:08.540Z,100262.39
2019-02-11T05:32:36.841Z,100266.70
2019-02-11T05:35:06.635Z,100271.47
2019-02-11T05:37:35.107Z,100274.56
2019-02-11T05:40:04.438Z,100269.25
2019-02-11T05:42:32.720Z,100277.69
2019-02-11T05:45:01.053Z,100277.75
2019-02-11T05:47:29.329Z,100305.78
2019-02-11T05:49:57.652Z,100298.20
2019-02-11T05:52:25.934Z,100297.63
2019-02-11T05:54:54.255Z,100291.02
2019-02-11T05:57:22.554Z,100296.48
2019-02-11T05:59:51.118Z,100293.97
2019-02-11T06:02:21.059Z,100311.02
2019-02-11T06:04:49.380Z,100314.83
2019-02-11T06:07:17.690Z,100323.25
2019-02-11T06:09:45.997Z,100324.80
2019-02-11T06:12:14.295Z,100330.53
2019-02-11T06:14:42.673Z,100336.81
2019-02-11T06:17:10.966Z,100329.91
2019-02-11T06:19:39.303Z,100338.52
2019-02-11T06:22:07.592Z,100347.39
2019-02-11T06:24:35.909Z,100359.34
2019-02-11T06:27:04.225Z,100361.50
2019-02-11T06:29:32.553Z,100365.08
2019-02-11T06:32:00.841Z,100380.98
2019-02-11T06:34:29.160Z,100384.77
2019-02-11T06:36:57.446Z,100382.98
2019-02-11T06:39:25.801Z,100386.31
2019-02-11T06:41:54.087Z,100393.55
2019-02-11T06:44:22.399Z,100402.11
2019-02-11T06:46:50.699Z,100412.06
2019-02-11T06:49:19.022Z,100406.36
2019-02-11T06:51:47.320Z,100420.82
2019-02-11T06:54:15.669Z,100424.60
2019-02-11T06:56:43.932Z,100438.03
2019-02-11T06:59:12.517Z,100433.05
2019-02-11T07:01:40.813Z,100431.98
2019-02-11T07:04:09.108Z,100450.84
2019-02-11T07:06:37.432Z,100460.08
2019-02-11T07:09:06.282Z,100463.86
2019-02-11T07:11:34.695Z,100475.47
2019-02-11T07:14:02.979Z,100479.14
2019-02-11T07:16:31.302Z,100481.03
2019-02-11T07:18:59.599Z,100496.70
2019-02-11T07:21:28.213Z,100501.09
2019-02-11T07:23:56.814Z,100502.27
2019-02-11T07:26:25.412Z,100504.87
2019-02-11T07:28:53.983Z,100519.03
2019-02-11T07:31:22.588Z,100523.98
2019-02-11T07:33:51.154Z,100531.95
2019-02-11T07:36:19.465Z,100544.16
2019-02-11T07:38:47.751Z,100542.50
2019-02-11T07:41:16.060Z,100551.17
2019-02-11T07:43:45.989Z,100556.39
2019-02-11T07:46:15.934Z,100551.41
2019-02-11T07:48:44.224Z,100566.95
2019-02-11T07:51:12.534Z,100569.08
2019-02-11T07:53:40.837Z,100579.15
2019-02-11T07:56:09.181Z,100580.59
2019-02-11T07:58:37.813Z,100587.81
2019-02-11T08:01:06.131Z,100585.87
2019-02-11T08:03:34.526Z,100593.14
2019-02-11T08:06:03.246Z,100590.28
2019-02-11T08:08:33.107Z,100597.64
2019-02-11T08:11:01.515Z,100594.44
2019-02-11T08:13:30.130Z,100598.73
2019-02-11T08:15:58.441Z,100601.69
2019-02-11T08:18:26.784Z,100614.04
2019-02-11T08:20:55.133Z,100618.44
2019-02-11T08:23:23.491Z,100627.45
2019-02-11T08:25:51.806Z,100627.34
2019-02-11T08:28:20.107Z,100630.00
2019-02-11T08:30:48.479Z,100631.97
2019-02-11T08:33:16.781Z,100635.09
2019-02-11T08:35:45.082Z,100642.80
2019-02-11T08:38:13.394Z,100644.10
2019-02-11T08:40:41.690Z,100644.58
2019-02-11T08:43:10.029Z,100656.14
2019-02-11T08:45:46.624Z,100656.83
2019-02-11T08:48:08.735Z,100670.96
2019-02-11T08:50:37.341Z,100673.58
2019-02-11T08:53:05.930Z,100673.58
2019-02-11T08:55:34.244Z,100674.64
2019-02-11T08:58:02.554Z,100677.02
2019-02-11T09:00:30.862Z,100684.24
2019-02-11T09:02:59.442Z,100687.33
2019-02-11T09:05:27.745Z,100693.02
2019-02-11T09:07:56.345Z,100709.39
2019-02-11T09:10:25.002Z,100709.66
2019-02-11T09:12:53.320Z,100715.13
2019-02-11T09:15:21.603Z,100716.41
2019-02-11T09:17:50.183Z,100715.09
2019-02-11T09:20:18.606Z,100720.44
2019-02-11T09:22:46.936Z,100721.30
2019-02-11T09:25:15.290Z,100727.83
2019-02-11T09:27:43.608Z,100738.30
2019-02-11T09:30:14.771Z,100738.77
2019-02-11T09:32:43.212Z,100739.13
2019-02-11T09:35:11.466Z,100738.53
2019-02-11T09:37:40.126Z,100742.70
2019-02-11T09:40:11.830Z,100750.55
2019-02-11T09:42:40.135Z,100751.82
2019-02-11T09:45:12.025Z,100762.87
2019-02-11T09:47:40.645Z,100775.70
2019-02-11T09:50:17.795Z,100778.08
2019-02-11T09:52:46.377Z,100777.26
2019-02-11T09:55:18.331Z,100775.36
2019-02-11T09:57:46.617Z,100791.19
2019-02-11T10:00:15.194Z,100791.67
2019-02-11T10:02:43.597Z,100797.36
2019-02-11T10:05:12.258Z,100801.79
2019-02-11T10:07:40.552Z,100802.23
2019-02-11T10:10:10.315Z,100812.70
2019-02-11T10:12:38.602Z,100820.31
2019-02-11T10:15:10.105Z,100826.27
2019-02-11T10:17:38.479Z,100835.52
2019-02-11T10:20:14.191Z,100842.55
2019-02-11T10:22:42.487Z,100846.34
2019-02-11T10:25:25.766Z,100854.66
2019-02-11T10:27:56.941Z,100862.77
2019-02-11T10:30:25.418Z,100863.25
2019-02-11T10:32:53.706Z,100875.02
2019-02-11T10:35:22.142Z,100867.63
2019-02-11T10:37:50.876Z,100877.03
2019-02-11T10:40:19.168Z,100876.41
2019-02-11T10:42:47.486Z,100884.27
2019-02-11T10:45:15.846Z,100888.66
2019-02-11T10:47:45.800Z,100890.20
2019-02-11T10:50:17.193Z,100901.19
2019-02-11T10:52:45.555Z,100911.91
2019-02-11T10:55:16.549Z,100911.32
2019-02-11T10:57:45.215Z,100920.97
2019-02-11T11:00:16.218Z,100917.77
2019-02-11T11:02:44.905Z,100926.96
2019-02-11T11:05:14.132Z,100926.86
2019-02-11T11:07:42.678Z,100927.06
2019-02-11T11:10:16.721Z,100931.93
2019-02-11T11:12:45.066Z,100944.16
2019-02-11T11:15:13.370Z,100951.02
2019-02-11T11:17:41.740Z,100951.97
2019-02-11T11:20:15.207Z,100946.01
2019-02-11T11:22:43.510Z,100953.52
2019-02-11T11:25:12.267Z,100970.81
2019-02-11T11:27:40.568Z,100974.98
2019-02-11T11:30:11.979Z,100978.89
2019-02-11T11:32:40.446Z,100979.30
2019-02-11T11:35:10.049Z,100969.88
2019-02-11T11:37:38.335Z,100973.56
2019-02-11T11:40:09.879Z,100974.34
2019-02-11T11:42:38.200Z,100978.62
2019-02-11T11:45:10.275Z,100981.58
2019-02-11T11:47:38.593Z,100971.82
2019-02-11T11:50:08.339Z,100977.40
2019-02-11T11:52:36.675Z,100980.62
2019-02-11T11:55:08.106Z,100979.79
2019-02-11T11:57:36.458Z,100992.40
2019-02-11T12:00:13.473Z,100991.36
2019-02-11T12:02:59.498Z,101005.94
2019-02-11T12:05:11.978Z,101010.56
2019-02-11T12:07:40.299Z,101012.09
2019-02-11T12:10:09.826Z,101009.39
2019-02-11T12:12:38.645Z,101021.18
2019-02-11T12:15:09.978Z,101031.33
2019-02-11T12:17:38.414Z,101040.14
2019-02-11T12:20:10.025Z,101034.42
2019-02-11T12:22:38.311Z,101027.83
2019-02-11T12:25:09.543Z,101036.45
2019-02-11T12:27:37.840Z,101036.97
2019-02-11T12:30:09.349Z,101047.59
2019-02-11T12:32:37.655Z,101099.03
2019-02-11T12:35:09.020Z,101147.45
2019-02-11T12:37:37.320Z,101161.52
2019-02-11T12:40:07.772Z,101145.83
2019-02-11T12:42:36.068Z,101121.19
2019-02-11T12:45:06.581Z,101121.64
2019-02-11T12:47:34.893Z,101126.69
2019-02-11T12:50:03.663Z,101125.09
2019-02-11T12:52:31.969Z,101134.77
2019-02-11T12:55:00.523Z,101136.19
2019-02-11T12:57:28.950Z,101138.59
2019-02-11T12:59:57.221Z,101137.23
2019-02-11T13:02:25.533Z,101144.10
2019-02-11T13:04:54.129Z,101145.77
2019-02-11T13:07:22.436Z,101145.36
2019-02-11T13:09:50.722Z,101151.23
2019-02-11T13:12:19.051Z,101155.13
2019-02-11T13:14:47.358Z,101155.70
2019-02-11T13:17:32.227Z,101163.41
2019-02-11T13:19:45.916Z,101162.87
2019-02-11T13:22:14.396Z,101164.29
2019-02-11T13:24:42.693Z,101177.84
2019-02-11T13:27:11.100Z,101189.27
2019-02-11T13:29:39.693Z,101189.50
2019-02-11T13:32:10.602Z,101188.16
2019-02-11T13:34:38.016Z,101199.45
2019-02-11T13:37:06.298Z,101199.53
2019-02-11T13:39:34.650Z,101203.10
2019-02-11T13:42:02.972Z,101227.75
2019-02-11T13:44:31.292Z,101254.89
2019-02-11T13:46:59.576Z,101238.03
2019-02-11T13:49:27.861Z,101238.16
2019-02-11T13:51:56.440Z,101240.60
2019-02-11T13:54:24.733Z,101251.68
2019-02-11T13:56:53.102Z,101259.72
2019-02-11T13:59:21.398Z,101255.23
2019-02-11T14:01:49.870Z,101266.78
2019-02-11T14:04:18.260Z,101272.02
2019-02-11T14:06:46.556Z,101280.28
2019-02-11T14:09:14.852Z,101282.02
2019-02-11T14:11:43.149Z,101282.91
2019-02-11T14:14:11.488Z,101288.91
2019-02-11T14:16:39.758Z,101294.44
2019-02-11T14:19:08.354Z,101298.98
2019-02-11T14:21:36.660Z,101312.14
2019-02-11T14:24:04.996Z,101309.05
2019-02-11T14:26:33.290Z,101316.80
2019-02-11T14:29:01.599Z,101325.01
2019-02-11T14:31:31.210Z,101325.69
2019-02-11T14:33:59.653Z,101325.69
2019-02-11T14:36:27.966Z,101332.58
2019-02-11T14:38:56.270Z,101337.12
2019-02-11T14:41:24.560Z,101346.42
2019-02-11T14:43:52.845Z,101330.16
2019-02-11T14:46:21.464Z,101338.00
2019-02-11T14:48:49.745Z,101363.41
2019-02-11T14:51:18.414Z,101389.65
2019-02-11T14:53:46.713Z,101384.08
2019-02-11T14:56:15.361Z,101382.35
2019-02-11T14:58:43.675Z,101392.30
2019-02-11T15:01:11.990Z,101391.67
2019-02-11T15:03:40.421Z,101381.54
2019-02-11T15:06:08.739Z,101390.05
2019-02-11T15:08:37.025Z,101387.91
2019-02-11T15:11:05.667Z,101395.66
2019-02-11T15:13:34.423Z,101395.66
2019-02-11T15:16:02.712Z,101405.44
2019-02-11T15:18:34.264Z,101402.83
2019-02-11T15:21:01.434Z,101412.54
2019-02-11T15:23:29.735Z,101416.37
2019-02-11T15:25:58.535Z,101410.47
2019-02-11T15:28:26.869Z,101414.58
2019-02-11T15:30:55.416Z,101415.68
2019-02-11T15:33:24.037Z,101415.95
2019-02-11T15:35:52.604Z,101421.89
2019-02-11T15:38:20.913Z,101435.23
2019-02-11T15:40:49.211Z,101432.16
2019-02-11T15:43:17.514Z,101443.59
2019-02-11T15:45:45.856Z,101447.08
2019-02-11T15:48:14.493Z,101454.06
2019-02-11T15:50:43.044Z,101464.63
2019-02-11T15:53:11.352Z,101471.10
2019-02-11T15:55:39.929Z,101476.45
2019-02-11T15:58:08.244Z,101490.00
2019-02-11T16:00:36.638Z,101490.16
2019-02-11T16:03:05.273Z,101499.38
2019-02-11T16:05:33.825Z,101513.09
2019-02-11T16:08:02.153Z,101519.87
2019-02-11T16:10:30.430Z,101516.58
2019-02-11T16:12:58.758Z,101527.98
2019-02-11T16:15:27.074Z,101545.66
2019-02-11T16:17:55.656Z,101562.58
2019-02-11T16:20:24.248Z,101569.44
2019-02-11T16:22:52.551Z,101579.89
2019-02-11T16:25:20.839Z,101587.27
2019-02-11T16:27:49.490Z,101592.10
2019-02-11T16:30:20.279Z,101600.59
2019-02-11T16:32:48.656Z,101607.77
2019-02-11T16:35:18.014Z,101608.88
2019-02-11T16:37:46.479Z,101618.86
2019-02-11T16:40:21.118Z,101634.83
2019-02-11T16:42:49.407Z,101650.53
2019-02-11T16:45:17.710Z,101680.91
2019-02-11T16:47:46.001Z,101682.16
2019-02-11T16:50:14.828Z,101694.02
2019-02-11T16:52:43.131Z,101711.30
2019-02-11T16:55:12.336Z,101720.08
2019-02-11T16:57:40.609Z,101709.05
2019-02-11T17:00:17.959Z,101709.80
2019-02-11T17:02:46.409Z,101721.45
2019-02-11T17:05:14.942Z,101729.75
2019-02-11T17:07:43.251Z,101730.88
2019-02-11T17:10:13.059Z,101737.95
2019-02-11T17:12:41.375Z,101737.02
2019-02-11T17:15:11.812Z,101737.41
2019-02-11T17:17:40.119Z,101752.97
2019-02-11T17:20:10.754Z,101758.95
2019-02-11T17:22:39.070Z,101766.52
2019-02-11T17:25:09.501Z,101771.84
2019-02-11T17:27:37.828Z,101777.14
2019-02-11T17:30:09.399Z,101781.23
2019-02-11T17:32:37.716Z,101800.80
2019-02-11T17:35:08.344Z,101797.70
2019-02-11T17:37:39.846Z,101796.20
2019-02-11T17:40:11.848Z,101805.98
2019-02-11T17:42:40.196Z,101818.44
2019-02-11T17:45:14.234Z,101822.52
2019-02-11T17:47:42.797Z,101828.02
2019-02-11T17:50:11.710Z,101829.02
2019-02-11T17:52:40.317Z,101826.21
2019-02-11T17:55:13.943Z,101833.73
2019-02-11T17:57:42.514Z,101828.25
2019-02-11T18:00:24.704Z,101823.84
2019-02-11T18:02:53.001Z,101827.98
2019-02-11T18:05:21.566Z,101840.83
2019-02-11T18:07:50.154Z,101837.02
2019-02-11T18:10:18.474Z,101839.69
2019-02-11T18:12:46.933Z,101848.08
2019-02-11T18:15:15.284Z,101850.45
2019-02-11T18:17:43.579Z,101844.19
2019-02-11T18:20:11.966Z,101860.30
2019-02-11T18:22:40.248Z,101854.32
2019-02-11T18:25:09.824Z,101856.55
2019-02-11T18:27:38.138Z,101864.08
2019-02-11T18:30:10.722Z,101864.03
2019-02-11T18:32:39.041Z,101868.20
2019-02-11T18:35:10.284Z,101875.03
2019-02-11T18:37:38.614Z,101878.33
2019-02-11T18:40:09.754Z,101886.30
2019-02-11T18:42:38.074Z,101892.14
2019-02-11T18:45:11.698Z,101897.14
2019-02-11T18:47:40.299Z,101899.84
2019-02-11T18:50:11.434Z,101905.12
2019-02-11T18:52:39.736Z,101910.48
2019-02-11T18:55:10.688Z,101917.09
2019-02-11T18:57:39.005Z,101919.48
2019-02-11T19:00:11.435Z,101926.15
2019-02-11T19:02:39.913Z,101918.63
2019-02-11T19:05:08.665Z,101928.89
2019-02-11T19:07:36.967Z,101940.34
2019-02-11T19:10:11.047Z,101947.75
2019-02-11T19:12:39.352Z,101950.07
2019-02-11T19:15:12.800Z,101958.41
2019-02-11T19:17:41.421Z,101955.95
2019-02-11T19:20:12.073Z,101948.28
2019-02-11T19:22:40.363Z,101947.07
2019-02-11T19:25:10.231Z,101951.50
2019-02-11T19:27:38.821Z,101948.52
2019-02-11T19:30:12.906Z,101947.27
2019-02-11T19:32:41.257Z,101948.34
2019-02-11T19:35:09.565Z,101942.45
2019-02-11T19:37:37.956Z,101931.80
2019-02-11T19:40:09.578Z,101934.00
2019-02-11T19:42:38.212Z,101938.08
2019-02-11T19:45:09.920Z,101946.04
2019-02-11T19:47:38.387Z,101949.25
2019-02-11T19:50:12.215Z,101966.70
2019-02-11T19:52:40.862Z,101978.94
2019-02-11T19:55:11.034Z,101976.88
2019-02-11T19:57:39.322Z,101966.05
2019-02-11T20:00:11.062Z,101963.54
2019-02-11T20:02:39.380Z,101973.63
2019-02-11T20:05:09.233Z,101973.34
2019-02-11T20:07:37.533Z,101972.56
2019-02-11T20:10:09.034Z,101972.18
2019-02-11T20:12:37.325Z,101983.89
2019-02-11T20:15:09.058Z,101980.59
2019-02-11T20:17:37.625Z,101972.84
2019-02-11T20:20:09.247Z,101982.33
2019-02-11T20:22:37.549Z,102006.67
2019-02-11T20:25:08.307Z,102008.95
2019-02-11T20:27:36.606Z,102012.16
2019-02-11T20:30:10.861Z,102012.63
2019-02-11T20:32:39.142Z,102015.60
2019-02-11T20:35:08.100Z,102021.68
2019-02-11T20:37:36.413Z,102024.42
2019-02-11T20:40:14.151Z,102041.23
2019-02-11T20:42:42.456Z,102049.55
2019-02-11T20:45:14.059Z,102052.06
2019-02-11T20:47:42.385Z,102054.41
2019-02-11T20:50:12.111Z,102065.00
2019-02-11T20:52:40.641Z,102069.99
2019-02-11T20:55:15.165Z,102074.00
2019-02-11T20:57:44.609Z,102078.70
2019-02-11T21:00:26.386Z,102089.36
2019-02-11T21:02:55.033Z,102090.90
2019-02-11T21:05:23.971Z,102087.64
2019-02-11T21:07:52.273Z,102089.51
2019-02-11T21:10:24.630Z,102082.77
2019-02-11T21:12:52.962Z,102078.21
2019-02-11T21:15:21.321Z,102090.17
2019-02-11T21:17:49.710Z,102094.27
2019-02-11T21:20:27.136Z,102088.91
2019-02-11T21:22:55.454Z,102089.90
2019-02-11T21:25:23.756Z,102091.06
2019-02-11T21:27:52.076Z,102097.67
2019-02-11T21:30:20.369Z,102104.73
2019-02-11T21:32:48.674Z,102113.95
2019-02-11T21:35:16.961Z,102115.02
2019-02-11T21:37:45.295Z,102114.36
2019-02-11T21:40:13.604Z,102119.89
2019-02-11T21:42:41.895Z,102119.72
2019-02-11T21:45:11.946Z,102132.61
2019-02-11T21:47:40.229Z,102128.09
2019-02-11T21:50:11.953Z,102127.94
2019-02-11T21:52:40.630Z,102127.33
2019-02-11T21:55:11.682Z,102134.95
2019-02-11T21:57:39.986Z,102142.37
2019-02-11T22:00:11.655Z,102141.16
2019-02-11T22:02:39.943Z,102147.59
2019-02-11T22:05:08.638Z,102152.74
2019-02-11T22:07:36.925Z,102140.86
2019-02-11T22:10:08.430Z,102142.40
2019-02-11T22:12:36.758Z,102143.70
2019-02-11T22:15:06.365Z,102150.74
2019-02-11T22:17:34.680Z,102157.90
2019-02-11T22:20:02.966Z,102160.22
2019-02-11T22:22:31.270Z,102158.62
2019-02-11T22:24:59.816Z,102152.37
2019-02-11T22:27:28.122Z,102154.84
2019-02-11T22:29:56.430Z,102153.53
2019-02-11T22:32:24.743Z,102147.48
2019-02-11T22:34:53.027Z,102149.25
2019-02-11T22:37:21.688Z,102152.09
2019-02-11T22:39:49.993Z,102148.73
2019-02-11T22:42:18.315Z,102156.00
2019-02-11T22:44:46.623Z,102160.69
2019-02-11T22:47:14.922Z,102166.75
2019-02-11T22:49:43.219Z,102167.06
2019-02-11T22:52:11.504Z,102171.82
2019-02-11T22:54:39.823Z,102172.66
2019-02-11T22:57:08.110Z,102173.59
2019-02-11T22:59:36.444Z,102177.86
2019-02-11T23:02:05.380Z,102178.55
2019-02-11T23:04:33.944Z,102178.81
2019-02-11T23:07:02.331Z,102184.41
2019-02-11T23:09:30.651Z,102193.77
2019-02-11T23:11:58.943Z,102193.70
2019-02-11T23:14:27.257Z,102190.54
2019-02-11T23:16:55.847Z,102200.98
2019-02-11T23:19:24.147Z,102212.49
2019-02-11T23:21:52.439Z,102205.12
2019-02-11T23:24:20.739Z,102205.80
2019-02-11T23:26:49.299Z,102191.05
2019-02-11T23:29:17.596Z,102191.23
2019-02-11T23:31:45.920Z,102192.41
2019-02-11T23:34:14.219Z,102191.58
2019-02-11T23:36:42.530Z,102197.69
2019-02-11T23:39:12.459Z,102201.59
2019-02-11T23:41:40.895Z,102210.30
2019-02-11T23:44:09.183Z,102219.70
2019-02-11T23:46:37.510Z,102224.64
2019-02-11T23:49:05.812Z,102228.27
2019-02-11T23:51:34.381Z,102226.73
2019-02-11T23:54:02.705Z,102238.73
2019-02-11T23:56:32.525Z,102242.09
2019-02-11T23:59:00.861Z,102246.38
